createdAt,value
2019-02-10T00:00:02.733Z,30.15
2019-02-10T00:00:43.984Z,28.10
2019-02-10T00:01:21.245Z,27.60
2019-02-10T00:01:57.865Z,28.20
2019-02-10T00:02:33.365Z,28.85
2019-02-10T00:03:08.805Z,28.55
2019-02-10T00:03:44.273Z,27.45
2019-02-10T00:04:19.867Z,30.00
2019-02-10T00:04:55.406Z,28.12
2019-02-10T00:05:30.847Z,30.27
2019-02-10T00:06:06.926Z,29.20
2019-02-10T00:06:42.727Z,26.57
2019-02-10T00:07:18.473Z,30.10
2019-02-10T00:07:53.886Z,28.05
2019-02-10T00:08:29.350Z,27.67
2019-02-10T00:09:05.273Z,26.35
2019-02-10T00:09:40.829Z,28.02
2019-02-10T00:10:16.309Z,28.30
2019-02-10T00:10:51.749Z,27.00
2019-02-10T00:11:27.287Z,27.22
2019-02-10T00:12:02.741Z,25.77
2019-02-10T00:12:41.026Z,26.48
2019-02-10T00:13:44.687Z,26.02
2019-02-10T00:14:20.310Z,26.52
2019-02-10T00:14:55.769Z,24.80
2019-02-10T00:15:31.367Z,25.27
2019-02-10T00:16:15.246Z,24.50
2019-02-10T00:16:50.972Z,24.67
2019-02-10T00:17:26.625Z,24.37
2019-02-10T00:18:02.225Z,24.65
2019-02-10T00:18:37.673Z,24.23
2019-02-10T00:19:13.104Z,22.13
2019-02-10T00:19:48.652Z,24.02
2019-02-10T00:20:24.065Z,24.07
2019-02-10T00:20:59.645Z,23.95
2019-02-10T00:21:35.153Z,23.10
2019-02-10T00:22:11.745Z,23.00
2019-02-10T00:22:47.205Z,24.02
2019-02-10T00:23:22.764Z,22.02
2019-02-10T00:23:58.359Z,21.27
2019-02-10T00:24:34.250Z,22.98
2019-02-10T00:25:09.688Z,23.12
2019-02-10T00:25:45.188Z,24.07
2019-02-10T00:26:20.750Z,21.82
2019-02-10T00:26:56.247Z,21.97
2019-02-10T00:27:31.785Z,21.40
2019-02-10T00:28:07.254Z,22.77
2019-02-10T00:28:42.934Z,23.57
2019-02-10T00:29:18.548Z,21.97
2019-02-10T00:29:53.908Z,21.90
2019-02-10T00:30:29.467Z,21.17
2019-02-10T00:31:04.786Z,22.13
2019-02-10T00:31:40.146Z,21.62
2019-02-10T00:32:15.587Z,22.17
2019-02-10T00:32:51.046Z,23.30
2019-02-10T00:33:26.564Z,22.40
2019-02-10T00:34:02.087Z,21.55
2019-02-10T00:34:37.486Z,20.65
2019-02-10T00:35:13.006Z,22.62
2019-02-10T00:35:48.408Z,23.25
2019-02-10T00:36:23.870Z,22.20
2019-02-10T00:36:59.309Z,22.70
2019-02-10T00:37:35.948Z,21.57
2019-02-10T00:38:13.068Z,19.98
2019-02-10T00:38:50.749Z,22.67
2019-02-10T00:39:26.589Z,21.68
2019-02-10T00:40:02.276Z,21.80
2019-02-10T00:40:37.648Z,20.25
2019-02-10T00:41:13.168Z,19.70
2019-02-10T00:41:48.571Z,22.73
2019-02-10T00:42:24.091Z,22.75
2019-02-10T00:42:59.565Z,23.20
2019-02-10T00:43:35.187Z,23.30
2019-02-10T00:44:10.706Z,18.48
2019-02-10T00:44:46.126Z,21.87
2019-02-10T00:45:21.607Z,20.92
2019-02-10T00:45:57.107Z,22.45
2019-02-10T00:46:32.666Z,21.48
2019-02-10T00:47:07.967Z,22.07
2019-02-10T00:47:43.688Z,22.55
2019-02-10T00:48:19.429Z,23.52
2019-02-10T00:48:54.772Z,20.92
2019-02-10T00:49:30.286Z,23.87
2019-02-10T00:50:06.134Z,19.80
2019-02-10T00:50:41.686Z,18.92
2019-02-10T00:51:17.109Z,22.48
2019-02-10T00:51:52.969Z,19.07
2019-02-10T00:52:28.690Z,21.23
2019-02-10T00:53:04.228Z,22.25
2019-02-10T00:53:39.828Z,21.10
2019-02-10T00:54:15.408Z,21.48
2019-02-10T00:54:50.868Z,21.07
2019-02-10T00:55:26.528Z,20.75
2019-02-10T00:56:02.028Z,21.42
2019-02-10T00:56:37.428Z,21.73
2019-02-10T00:57:12.912Z,22.58
2019-02-10T00:57:48.389Z,21.20
2019-02-10T00:58:23.870Z,23.80
2019-02-10T00:58:59.308Z,23.52
2019-02-10T00:59:34.851Z,20.55
2019-02-10T01:00:10.388Z,23.00
2019-02-10T01:00:45.948Z,23.18
2019-02-10T01:01:21.291Z,22.73
2019-02-10T01:01:56.688Z,24.92
2019-02-10T01:02:32.268Z,23.10
2019-02-10T01:03:07.928Z,22.65
2019-02-10T01:03:43.369Z,20.92
2019-02-10T01:04:18.809Z,23.60
2019-02-10T01:04:54.424Z,24.32
2019-02-10T01:05:29.966Z,21.73
2019-02-10T01:06:05.606Z,24.07
2019-02-10T01:06:41.793Z,23.30
2019-02-10T01:07:18.906Z,23.00
2019-02-10T01:07:54.726Z,24.67
2019-02-10T01:08:30.367Z,23.38
2019-02-10T01:09:07.268Z,24.57
2019-02-10T01:09:42.802Z,23.80
2019-02-10T01:10:19.846Z,25.00
2019-02-10T01:11:06.869Z,23.05
2019-02-10T01:11:42.326Z,23.52
2019-02-10T01:12:17.827Z,23.62
2019-02-10T01:12:53.424Z,22.75
2019-02-10T01:13:29.108Z,22.75
2019-02-10T01:14:04.508Z,22.65
2019-02-10T01:14:39.988Z,23.10
2019-02-10T01:15:15.509Z,21.50
2019-02-10T01:15:50.969Z,22.40
2019-02-10T01:16:26.472Z,21.95
2019-02-10T01:17:01.968Z,22.52
2019-02-10T01:17:37.548Z,21.52
2019-02-10T01:18:13.048Z,22.42
2019-02-10T01:19:10.010Z,23.27
2019-02-10T01:19:45.585Z,21.73
2019-02-10T01:20:21.304Z,21.70
2019-02-10T01:20:56.704Z,22.95
2019-02-10T01:21:32.372Z,23.02
2019-02-10T01:22:07.845Z,22.05
2019-02-10T01:22:52.585Z,21.82
2019-02-10T01:23:28.084Z,22.62
2019-02-10T01:24:03.386Z,21.55
2019-02-10T01:24:38.948Z,23.42
2019-02-10T01:25:17.533Z,23.00
2019-02-10T01:25:53.806Z,22.27
2019-02-10T01:26:29.324Z,22.70
2019-02-10T01:27:07.084Z,21.60
2019-02-10T01:27:42.544Z,21.87
2019-02-10T01:28:18.308Z,23.15
2019-02-10T01:28:53.684Z,21.37
2019-02-10T01:29:29.025Z,22.15
2019-02-10T01:30:04.944Z,21.75
2019-02-10T01:30:40.712Z,22.15
2019-02-10T01:31:16.244Z,23.18
2019-02-10T01:31:51.868Z,22.77
2019-02-10T01:32:27.244Z,22.85
2019-02-10T01:33:02.844Z,22.48
2019-02-10T01:33:38.284Z,21.23
2019-02-10T01:34:13.733Z,21.90
2019-02-10T01:34:49.324Z,20.35
2019-02-10T01:35:24.864Z,22.30
2019-02-10T01:36:00.503Z,22.17
2019-02-10T01:36:36.004Z,22.25
2019-02-10T01:37:11.464Z,21.02
2019-02-10T01:37:47.284Z,23.10
2019-02-10T01:38:24.329Z,21.95
2019-02-10T01:38:59.924Z,21.40
2019-02-10T01:39:35.324Z,22.67
2019-02-10T01:40:11.305Z,20.97
2019-02-10T01:40:46.765Z,22.98
2019-02-10T01:41:22.272Z,22.52
2019-02-10T01:41:57.725Z,22.87
2019-02-10T01:42:33.384Z,21.52
2019-02-10T01:43:08.806Z,22.00
2019-02-10T01:43:44.485Z,19.02
2019-02-10T01:44:20.304Z,20.25
2019-02-10T01:44:55.765Z,21.70
2019-02-10T01:45:31.332Z,20.37
2019-02-10T01:46:07.325Z,20.20
2019-02-10T01:46:42.647Z,21.05
2019-02-10T01:47:18.012Z,21.60
2019-02-10T01:47:53.323Z,20.90
2019-02-10T01:48:28.743Z,19.52
2019-02-10T01:49:04.323Z,15.43
2019-02-10T01:49:40.223Z,21.52
2019-02-10T01:50:15.723Z,20.97
2019-02-10T01:50:51.083Z,18.45
2019-02-10T01:51:26.503Z,18.17
2019-02-10T01:52:02.006Z,20.35
2019-02-10T01:52:37.473Z,20.27
2019-02-10T01:53:12.865Z,21.55
2019-02-10T01:53:48.405Z,21.48
2019-02-10T01:54:25.985Z,22.50
2019-02-10T01:55:01.446Z,20.08
2019-02-10T01:55:36.906Z,20.90
2019-02-10T01:56:12.185Z,21.87
2019-02-10T01:56:47.525Z,20.45
2019-02-10T01:57:23.028Z,22.13
2019-02-10T01:57:58.465Z,20.20
2019-02-10T01:58:34.046Z,20.30
2019-02-10T01:59:09.585Z,21.62
2019-02-10T01:59:45.005Z,21.30
2019-02-10T02:00:21.125Z,20.52
2019-02-10T02:00:56.525Z,19.77
2019-02-10T02:01:31.805Z,21.15
2019-02-10T02:02:07.186Z,21.97
2019-02-10T02:02:42.609Z,20.70
2019-02-10T02:03:17.945Z,22.32
2019-02-10T02:03:53.285Z,21.77
2019-02-10T02:04:28.725Z,21.27
2019-02-10T02:05:05.663Z,19.50
2019-02-10T02:05:41.263Z,20.17
2019-02-10T02:06:16.711Z,20.95
2019-02-10T02:06:57.736Z,20.37
2019-02-10T02:07:29.543Z,21.02
2019-02-10T02:08:05.091Z,18.75
2019-02-10T02:08:40.423Z,19.57
2019-02-10T02:09:16.125Z,19.75
2019-02-10T02:09:52.124Z,20.10
2019-02-10T02:10:27.799Z,19.95
2019-02-10T02:11:03.256Z,20.37
2019-02-10T02:11:38.767Z,20.55
2019-02-10T02:12:14.165Z,20.62
2019-02-10T02:12:49.764Z,19.55
2019-02-10T02:13:25.311Z,20.80
2019-02-10T02:14:00.780Z,19.35
2019-02-10T02:14:36.291Z,20.12
2019-02-10T02:15:13.824Z,19.20
2019-02-10T02:15:49.103Z,19.92
2019-02-10T02:16:24.623Z,19.55
2019-02-10T02:17:00.134Z,19.98
2019-02-10T02:17:36.017Z,18.95
2019-02-10T02:18:12.416Z,18.25
2019-02-10T02:18:48.123Z,20.15
2019-02-10T02:19:23.943Z,18.82
2019-02-10T02:19:59.820Z,19.62
2019-02-10T02:20:35.772Z,18.45
2019-02-10T02:21:11.593Z,19.98
2019-02-10T02:21:47.522Z,21.37
2019-02-10T02:22:23.241Z,20.30
2019-02-10T02:22:58.960Z,18.55
2019-02-10T02:23:34.672Z,18.70
2019-02-10T02:24:10.424Z,21.42
2019-02-10T02:24:46.164Z,18.50
2019-02-10T02:25:21.983Z,18.50
2019-02-10T02:25:57.785Z,20.70
2019-02-10T02:26:33.325Z,19.55
2019-02-10T02:27:09.023Z,19.35
2019-02-10T02:27:45.894Z,20.72
2019-02-10T02:28:21.575Z,19.15
2019-02-10T02:28:57.208Z,19.90
2019-02-10T02:29:33.288Z,19.80
2019-02-10T02:30:14.144Z,20.48
2019-02-10T02:30:52.511Z,20.30
2019-02-10T02:31:28.610Z,19.98
2019-02-10T02:32:04.442Z,19.48
2019-02-10T02:32:40.183Z,20.17
2019-02-10T02:33:16.067Z,21.35
2019-02-10T02:33:51.845Z,19.75
2019-02-10T02:34:27.446Z,19.85
2019-02-10T02:35:03.184Z,19.60
2019-02-10T02:35:38.946Z,19.45
2019-02-10T02:36:14.805Z,21.10
2019-02-10T02:36:50.645Z,20.12
2019-02-10T02:37:26.485Z,19.10
2019-02-10T02:38:02.367Z,20.37
2019-02-10T02:38:38.547Z,19.80
2019-02-10T02:39:14.439Z,20.72
2019-02-10T02:39:50.083Z,20.70
2019-02-10T02:40:25.727Z,19.92
2019-02-10T02:41:01.418Z,19.57
2019-02-10T02:41:37.466Z,19.73
2019-02-10T02:42:13.120Z,19.37
2019-02-10T02:42:48.888Z,20.65
2019-02-10T02:43:24.606Z,19.95
2019-02-10T02:44:00.702Z,20.68
2019-02-10T02:44:36.640Z,21.12
2019-02-10T02:45:13.018Z,20.43
2019-02-10T02:45:48.856Z,19.98
2019-02-10T02:46:24.902Z,19.73
2019-02-10T02:47:00.830Z,19.60
2019-02-10T02:47:36.628Z,21.30
2019-02-10T02:48:12.328Z,20.15
2019-02-10T02:48:48.227Z,20.65
2019-02-10T02:49:24.063Z,19.73
2019-02-10T02:50:00.586Z,20.23
2019-02-10T02:50:36.405Z,21.37
2019-02-10T02:51:12.248Z,19.02
2019-02-10T02:51:48.316Z,20.60
2019-02-10T02:52:24.025Z,21.48
2019-02-10T02:53:00.176Z,19.80
2019-02-10T02:53:35.797Z,20.75
2019-02-10T02:54:11.661Z,21.17
2019-02-10T02:54:51.558Z,19.25
2019-02-10T02:55:27.616Z,20.17
2019-02-10T02:56:03.497Z,20.40
2019-02-10T02:56:39.203Z,18.90
2019-02-10T02:57:14.976Z,19.73
2019-02-10T02:57:50.697Z,20.45
2019-02-10T02:58:26.546Z,19.60
2019-02-10T02:59:02.397Z,20.00
2019-02-10T02:59:38.362Z,20.27
2019-02-10T03:00:14.245Z,18.77
2019-02-10T03:00:49.822Z,19.48
2019-02-10T03:01:25.423Z,18.48
2019-02-10T03:02:01.027Z,20.12
2019-02-10T03:02:36.779Z,18.23
2019-02-10T03:03:12.458Z,19.60
2019-02-10T03:03:48.296Z,19.85
2019-02-10T03:04:23.885Z,18.95
2019-02-10T03:04:59.704Z,19.05
2019-02-10T03:05:35.448Z,19.70
2019-02-10T03:06:11.108Z,19.02
2019-02-10T03:06:47.379Z,21.42
2019-02-10T03:07:22.989Z,21.12
2019-02-10T03:07:58.616Z,18.55
2019-02-10T03:08:34.429Z,20.60
2019-02-10T03:09:10.129Z,20.08
2019-02-10T03:09:46.050Z,19.35
2019-02-10T03:10:21.670Z,19.37
2019-02-10T03:10:57.329Z,19.12
2019-02-10T03:11:32.956Z,20.02
2019-02-10T03:12:08.709Z,19.45
2019-02-10T03:12:44.371Z,18.55
2019-02-10T03:13:20.008Z,19.32
2019-02-10T03:13:55.531Z,19.52
2019-02-10T03:14:31.052Z,19.40
2019-02-10T03:15:07.332Z,19.50
2019-02-10T03:15:43.248Z,20.55
2019-02-10T03:16:19.068Z,19.45
2019-02-10T03:16:54.819Z,20.45
2019-02-10T03:17:30.659Z,21.37
2019-02-10T03:18:07.298Z,20.45
2019-02-10T03:18:42.978Z,20.35
2019-02-10T03:19:18.979Z,21.20
2019-02-10T03:19:54.982Z,21.62
2019-02-10T03:20:30.959Z,22.27
2019-02-10T03:21:06.901Z,21.20
2019-02-10T03:21:43.007Z,19.55
2019-02-10T03:22:18.930Z,19.55
2019-02-10T03:22:54.549Z,20.08
2019-02-10T03:23:30.291Z,18.90
2019-02-10T03:24:06.591Z,18.73
2019-02-10T03:24:42.337Z,20.50
2019-02-10T03:25:18.231Z,19.95
2019-02-10T03:25:54.032Z,21.10
2019-02-10T03:26:29.923Z,20.88
2019-02-10T03:27:05.768Z,19.77
2019-02-10T03:27:41.965Z,21.07
2019-02-10T03:28:17.822Z,22.93
2019-02-10T03:28:53.455Z,22.37
2019-02-10T03:29:29.185Z,21.07
2019-02-10T03:30:04.964Z,21.70
2019-02-10T03:30:40.791Z,21.62
2019-02-10T03:31:16.625Z,21.48
2019-02-10T03:31:52.324Z,21.62
2019-02-10T03:32:28.965Z,21.23
2019-02-10T03:33:04.896Z,21.70
2019-02-10T03:33:40.828Z,21.82
2019-02-10T03:34:16.650Z,22.02
2019-02-10T03:34:52.662Z,20.95
2019-02-10T03:35:28.688Z,21.50
2019-02-10T03:36:04.969Z,20.45
2019-02-10T03:36:40.704Z,21.30
2019-02-10T03:37:16.404Z,20.75
2019-02-10T03:37:52.351Z,20.97
2019-02-10T03:38:28.513Z,21.23
2019-02-10T03:39:05.379Z,21.40
2019-02-10T03:39:41.181Z,21.55
2019-02-10T03:40:17.068Z,20.02
2019-02-10T03:40:52.939Z,20.62
2019-02-10T03:41:28.740Z,21.30
2019-02-10T03:42:04.690Z,20.55
2019-02-10T03:42:40.896Z,19.05
2019-02-10T03:43:16.797Z,20.48
2019-02-10T03:43:52.580Z,18.80
2019-02-10T03:44:28.237Z,20.88
2019-02-10T03:45:04.057Z,20.65
2019-02-10T03:45:39.877Z,18.12
2019-02-10T03:46:15.978Z,19.48
2019-02-10T03:46:51.557Z,20.30
2019-02-10T03:47:27.278Z,20.15
2019-02-10T03:48:03.211Z,19.32
2019-02-10T03:48:41.190Z,17.95
2019-02-10T03:49:16.878Z,19.15
2019-02-10T03:49:52.669Z,17.48
2019-02-10T03:50:28.436Z,17.75
2019-02-10T03:51:04.103Z,17.10
2019-02-10T03:51:39.905Z,18.25
2019-02-10T03:52:15.764Z,17.90
2019-02-10T03:52:51.504Z,19.12
2019-02-10T03:53:27.107Z,19.42
2019-02-10T03:54:02.906Z,18.42
2019-02-10T03:54:39.704Z,18.20
2019-02-10T03:55:15.568Z,18.07
2019-02-10T03:55:51.630Z,16.65
2019-02-10T03:56:27.328Z,18.37
2019-02-10T03:57:03.022Z,17.37
2019-02-10T03:57:39.000Z,17.05
2019-02-10T03:58:14.759Z,18.48
2019-02-10T03:58:50.359Z,18.15
2019-02-10T03:59:26.204Z,17.73
2019-02-10T04:00:02.007Z,17.00
2019-02-10T04:00:37.845Z,17.67
2019-02-10T04:01:13.643Z,17.48
2019-02-10T04:01:49.126Z,17.62
2019-02-10T04:02:24.863Z,18.30
2019-02-10T04:03:00.643Z,15.50
2019-02-10T04:03:36.343Z,15.40
2019-02-10T04:04:12.346Z,13.85
2019-02-10T04:04:48.083Z,17.95
2019-02-10T04:05:27.184Z,16.42
2019-02-10T04:06:04.183Z,15.13
2019-02-10T04:06:39.603Z,16.73
2019-02-10T04:07:15.265Z,16.40
2019-02-10T04:07:50.925Z,17.87
2019-02-10T04:08:26.561Z,19.73
2019-02-10T04:09:02.182Z,16.32
2019-02-10T04:09:38.267Z,17.37
2019-02-10T04:10:13.964Z,15.43
2019-02-10T04:10:49.783Z,17.80
2019-02-10T04:11:25.475Z,16.12
2019-02-10T04:12:01.361Z,16.85
2019-02-10T04:12:37.137Z,16.65
2019-02-10T04:13:13.005Z,17.23
2019-02-10T04:13:48.738Z,17.05
2019-02-10T04:14:24.537Z,18.07
2019-02-10T04:15:00.314Z,16.52
2019-02-10T04:15:36.439Z,15.88
2019-02-10T04:16:12.076Z,16.85
2019-02-10T04:16:47.717Z,17.90
2019-02-10T04:17:23.357Z,17.05
2019-02-10T04:17:58.917Z,16.65
2019-02-10T04:18:34.478Z,15.32
2019-02-10T04:19:10.126Z,16.80
2019-02-10T04:19:46.259Z,17.45
2019-02-10T04:20:22.018Z,17.02
2019-02-10T04:20:57.689Z,18.37
2019-02-10T04:21:33.602Z,18.25
2019-02-10T04:22:09.461Z,17.37
2019-02-10T04:22:45.183Z,16.65
2019-02-10T04:23:21.048Z,17.40
2019-02-10T04:23:56.583Z,17.15
2019-02-10T04:24:33.245Z,17.05
2019-02-10T04:25:08.923Z,17.67
2019-02-10T04:25:44.722Z,18.32
2019-02-10T04:26:20.389Z,17.82
2019-02-10T04:26:56.463Z,16.67
2019-02-10T04:27:32.200Z,17.48
2019-02-10T04:28:07.865Z,19.05
2019-02-10T04:28:43.657Z,18.55
2019-02-10T04:29:19.318Z,17.35
2019-02-10T04:29:54.897Z,18.62
2019-02-10T04:30:30.738Z,17.85
2019-02-10T04:31:07.621Z,17.62
2019-02-10T04:31:43.525Z,17.15
2019-02-10T04:32:19.261Z,18.75
2019-02-10T04:32:54.888Z,18.48
2019-02-10T04:33:30.503Z,21.37
2019-02-10T04:34:06.381Z,18.77
2019-02-10T04:34:42.342Z,18.82
2019-02-10T04:35:17.941Z,19.40
2019-02-10T04:35:53.805Z,18.10
2019-02-10T04:36:29.601Z,19.98
2019-02-10T04:37:05.249Z,19.92
2019-02-10T04:37:46.070Z,19.82
2019-02-10T04:38:18.512Z,17.42
2019-02-10T04:38:54.346Z,18.42
2019-02-10T04:39:30.003Z,17.90
2019-02-10T04:40:05.883Z,18.25
2019-02-10T04:40:41.688Z,18.75
2019-02-10T04:41:17.463Z,18.70
2019-02-10T04:41:53.041Z,19.70
2019-02-10T04:42:28.720Z,18.70
2019-02-10T04:43:04.781Z,19.37
2019-02-10T04:43:40.530Z,19.30
2019-02-10T04:44:16.166Z,18.57
2019-02-10T04:44:52.105Z,20.77
2019-02-10T04:45:28.063Z,18.30
2019-02-10T04:46:03.577Z,19.20
2019-02-10T04:46:39.505Z,19.85
2019-02-10T04:47:15.071Z,20.60
2019-02-10T04:47:51.041Z,20.23
2019-02-10T04:48:27.251Z,19.20
2019-02-10T04:49:02.872Z,21.37
2019-02-10T04:49:38.636Z,22.02
2019-02-10T04:50:14.457Z,21.23
2019-02-10T04:50:50.679Z,20.37
2019-02-10T04:51:26.505Z,21.77
2019-02-10T04:52:02.301Z,20.90
2019-02-10T04:52:38.021Z,20.15
2019-02-10T04:53:13.903Z,22.07
2019-02-10T04:53:49.687Z,23.32
2019-02-10T04:54:25.603Z,22.80
2019-02-10T04:55:01.385Z,24.00
2019-02-10T04:55:37.325Z,22.25
2019-02-10T04:56:14.922Z,21.73
2019-02-10T04:56:51.102Z,23.45
2019-02-10T04:57:26.822Z,24.37
2019-02-10T04:58:02.641Z,24.40
2019-02-10T04:58:38.488Z,24.47
2019-02-10T04:59:14.101Z,23.10
2019-02-10T04:59:49.773Z,24.87
2019-02-10T05:00:25.657Z,23.60
2019-02-10T05:01:01.732Z,23.80
2019-02-10T05:01:37.646Z,25.62
2019-02-10T05:02:13.884Z,24.23
2019-02-10T05:02:49.912Z,25.30
2019-02-10T05:03:25.966Z,24.87
2019-02-10T05:04:01.928Z,25.80
2019-02-10T05:04:37.704Z,24.90
2019-02-10T05:05:13.306Z,25.80
2019-02-10T05:05:49.419Z,26.95
2019-02-10T05:06:25.249Z,24.65
2019-02-10T05:07:01.256Z,22.25
2019-02-10T05:07:37.330Z,24.92
2019-02-10T05:08:13.191Z,24.45
2019-02-10T05:08:49.008Z,27.05
2019-02-10T05:09:25.376Z,25.52
2019-02-10T05:10:01.079Z,26.75
2019-02-10T05:10:36.798Z,28.17
2019-02-10T05:11:12.957Z,27.90
2019-02-10T05:11:49.065Z,25.00
2019-02-10T05:12:25.498Z,26.30
2019-02-10T05:13:01.298Z,26.55
2019-02-10T05:13:37.239Z,28.38
2019-02-10T05:14:13.120Z,26.97
2019-02-10T05:14:48.900Z,27.55
2019-02-10T05:15:24.539Z,27.75
2019-02-10T05:16:00.138Z,27.15
2019-02-10T05:16:35.859Z,27.15
2019-02-10T05:17:11.603Z,26.30
2019-02-10T05:17:47.298Z,27.10
2019-02-10T05:18:23.178Z,27.77
2019-02-10T05:18:58.982Z,26.82
2019-02-10T05:19:34.618Z,28.45
2019-02-10T05:20:10.562Z,27.55
2019-02-10T05:20:46.430Z,27.60
2019-02-10T05:21:22.440Z,28.15
2019-02-10T05:21:58.118Z,26.77
2019-02-10T05:22:33.718Z,27.67
2019-02-10T05:23:09.802Z,27.02
2019-02-10T05:23:45.918Z,28.00
2019-02-10T05:24:22.045Z,25.88
2019-02-10T05:24:57.799Z,28.32
2019-02-10T05:25:33.761Z,27.77
2019-02-10T05:26:09.821Z,26.70
2019-02-10T05:26:45.763Z,26.73
2019-02-10T05:27:21.663Z,27.58
2019-02-10T05:27:57.388Z,27.73
2019-02-10T05:28:33.271Z,28.45
2019-02-10T05:29:08.988Z,29.27
2019-02-10T05:29:44.868Z,27.67
2019-02-10T05:30:20.695Z,29.63
2019-02-10T05:30:56.370Z,29.40
2019-02-10T05:31:32.027Z,28.25
2019-02-10T05:32:07.944Z,26.97
2019-02-10T05:32:43.821Z,28.70
2019-02-10T05:33:19.690Z,30.48
2019-02-10T05:33:55.509Z,28.23
2019-02-10T05:34:31.498Z,30.15
2019-02-10T05:35:07.928Z,30.00
2019-02-10T05:35:44.316Z,27.80
2019-02-10T05:36:20.168Z,29.15
2019-02-10T05:36:55.990Z,29.95
2019-02-10T05:37:31.811Z,29.82
2019-02-10T05:38:07.589Z,29.23
2019-02-10T05:38:43.461Z,30.02
2019-02-10T05:39:20.087Z,29.82
2019-02-10T05:39:56.536Z,30.50
2019-02-10T05:40:32.336Z,30.52
2019-02-10T05:41:08.269Z,32.28
2019-02-10T05:41:44.035Z,29.98
2019-02-10T05:42:19.766Z,30.15
2019-02-10T05:42:55.428Z,27.70
2019-02-10T05:43:31.287Z,30.12
2019-02-10T05:44:07.366Z,30.25
2019-02-10T05:44:43.063Z,25.55
2019-02-10T05:45:18.841Z,24.72
2019-02-10T05:45:54.610Z,25.60
2019-02-10T05:46:30.660Z,29.45
2019-02-10T05:47:06.340Z,27.65
2019-02-10T05:47:42.078Z,30.08
2019-02-10T05:48:17.848Z,31.00
2019-02-10T05:48:53.760Z,31.17
2019-02-10T05:49:29.580Z,30.37
2019-02-10T05:50:05.948Z,31.05
2019-02-10T05:50:42.122Z,30.90
2019-02-10T05:51:17.717Z,28.55
2019-02-10T05:51:53.402Z,28.70
2019-02-10T05:52:29.205Z,30.30
2019-02-10T05:53:05.141Z,30.72
2019-02-10T05:53:40.858Z,31.45
2019-02-10T05:54:16.679Z,32.48
2019-02-10T05:54:52.458Z,32.08
2019-02-10T05:55:28.278Z,35.50
2019-02-10T05:56:04.251Z,36.50
2019-02-10T05:56:40.207Z,38.30
2019-02-10T05:57:15.888Z,40.05
2019-02-10T05:57:51.640Z,38.38
2019-02-10T05:58:27.699Z,35.55
2019-02-10T05:59:05.261Z,32.05
2019-02-10T05:59:41.488Z,31.87
2019-02-10T06:00:17.068Z,29.45
2019-02-10T06:00:52.801Z,27.73
2019-02-10T06:02:33.261Z,26.80
2019-02-10T06:03:09.165Z,29.77
2019-02-10T06:03:44.927Z,31.48
2019-02-10T06:04:20.656Z,34.48
2019-02-10T06:04:56.728Z,35.70
2019-02-10T06:05:33.067Z,36.53
2019-02-10T06:06:09.601Z,36.08
2019-02-10T06:06:45.762Z,38.13
2019-02-10T06:07:23.026Z,37.55
2019-02-10T06:07:59.022Z,36.60
2019-02-10T06:08:34.879Z,36.42
2019-02-10T06:09:11.016Z,35.17
2019-02-10T06:09:46.878Z,34.55
2019-02-10T06:10:22.569Z,33.70
2019-02-10T06:10:58.215Z,35.73
2019-02-10T06:11:33.910Z,32.30
2019-02-10T06:12:09.850Z,33.53
2019-02-10T06:12:45.749Z,31.70
2019-02-10T06:13:21.590Z,30.00
2019-02-10T06:13:57.329Z,28.90
2019-02-10T06:14:33.049Z,29.23
2019-02-10T06:15:09.598Z,29.75
2019-02-10T06:15:45.369Z,35.48
2019-02-10T06:16:21.026Z,37.38
2019-02-10T06:16:56.745Z,38.42
2019-02-10T06:17:32.697Z,38.95
2019-02-10T06:18:08.794Z,40.65
2019-02-10T06:18:44.506Z,34.95
2019-02-10T06:19:20.046Z,39.85
2019-02-10T06:19:55.586Z,37.25
2019-02-10T06:20:31.781Z,38.13
2019-02-10T06:21:07.561Z,37.90
2019-02-10T06:21:43.527Z,37.17
2019-02-10T06:22:19.168Z,35.28
2019-02-10T06:22:54.837Z,36.08
2019-02-10T06:23:30.569Z,35.83
2019-02-10T06:24:06.332Z,36.45
2019-02-10T06:24:42.029Z,33.67
2019-02-10T06:25:17.679Z,35.23
2019-02-10T06:25:53.508Z,33.85
2019-02-10T06:26:29.128Z,35.13
2019-02-10T06:27:04.789Z,35.50
2019-02-10T06:27:40.388Z,35.43
2019-02-10T06:28:16.171Z,34.70
2019-02-10T06:28:51.869Z,31.12
2019-02-10T06:29:28.323Z,29.98
2019-02-10T06:30:04.041Z,31.85
2019-02-10T06:30:39.741Z,32.70
2019-02-10T06:31:15.433Z,29.50
2019-02-10T06:31:51.371Z,29.72
2019-02-10T06:32:27.154Z,32.40
2019-02-10T06:33:03.035Z,31.87
2019-02-10T06:33:38.741Z,32.15
2019-02-10T06:34:14.504Z,31.00
2019-02-10T06:34:50.955Z,32.00
2019-02-10T06:35:26.679Z,28.92
2019-02-10T06:36:02.553Z,32.40
2019-02-10T06:36:38.275Z,31.42
2019-02-10T06:37:13.992Z,32.30
2019-02-10T06:37:49.893Z,35.48
2019-02-10T06:38:25.670Z,40.58
2019-02-10T06:39:01.497Z,39.08
2019-02-10T06:39:37.259Z,40.23
2019-02-10T06:40:13.597Z,40.25
2019-02-10T06:40:49.257Z,38.85
2019-02-10T06:41:24.896Z,40.03
2019-02-10T06:42:00.457Z,38.83
2019-02-10T06:42:38.537Z,38.98
2019-02-10T06:43:46.658Z,37.38
2019-02-10T06:44:23.447Z,37.80
2019-02-10T06:44:59.089Z,35.43
2019-02-10T06:45:34.770Z,36.35
2019-02-10T06:46:10.591Z,33.30
2019-02-10T06:46:46.351Z,32.58
2019-02-10T06:47:22.112Z,33.53
2019-02-10T06:47:57.909Z,31.65
2019-02-10T06:48:33.712Z,29.23
2019-02-10T06:49:09.571Z,30.92
2019-02-10T06:49:45.289Z,27.17
2019-02-10T06:50:21.031Z,26.57
2019-02-10T06:50:56.633Z,25.50
2019-02-10T06:51:32.869Z,25.80
2019-02-10T06:52:08.481Z,24.43
2019-02-10T06:52:44.335Z,24.25
2019-02-10T06:53:20.289Z,22.67
2019-02-10T06:53:56.101Z,22.15
2019-02-10T06:54:31.923Z,25.23
2019-02-10T06:55:10.044Z,23.77
2019-02-10T06:55:45.789Z,25.20
2019-02-10T06:56:23.343Z,23.77
2019-02-10T06:56:59.130Z,23.92
2019-02-10T06:57:35.021Z,23.77
2019-02-10T06:58:11.138Z,24.60
2019-02-10T06:58:48.241Z,23.15
2019-02-10T06:59:49.046Z,25.65
2019-02-10T07:01:06.614Z,24.72
2019-02-10T07:01:56.177Z,23.67
2019-02-10T07:02:41.848Z,26.70
2019-02-10T07:03:50.350Z,25.68
2019-02-10T07:04:29.886Z,23.02
2019-02-10T07:05:05.851Z,26.40
2019-02-10T07:05:41.311Z,26.40
2019-02-10T07:06:17.251Z,27.07
2019-02-10T07:06:53.207Z,26.00
2019-02-10T07:07:29.101Z,27.13
2019-02-10T07:08:04.838Z,25.20
2019-02-10T07:08:40.952Z,25.00
2019-02-10T07:09:17.240Z,24.80
2019-02-10T07:09:53.145Z,25.20
2019-02-10T07:10:29.519Z,25.15
2019-02-10T07:11:07.441Z,27.52
2019-02-10T07:11:43.743Z,26.50
2019-02-10T07:12:51.306Z,27.82
2019-02-10T07:13:38.612Z,30.70
2019-02-10T07:14:35.048Z,29.67
2019-02-10T07:15:46.971Z,27.87
2019-02-10T07:16:44.788Z,27.22
2019-02-10T07:17:41.248Z,27.42
2019-02-10T07:19:05.090Z,27.20
2019-02-10T07:20:32.135Z,25.45
2019-02-10T07:21:07.908Z,26.77
2019-02-10T07:21:47.269Z,26.48
2019-02-10T07:22:57.368Z,25.50
2019-02-10T07:24:44.455Z,24.43
2019-02-10T07:25:45.789Z,24.98
2019-02-10T07:26:31.549Z,26.33
2019-02-10T07:27:33.248Z,26.52
2019-02-10T07:28:57.374Z,25.65
2019-02-10T07:30:01.239Z,25.77
2019-02-10T07:30:51.876Z,26.15
2019-02-10T07:31:54.207Z,27.35
2019-02-10T07:32:35.555Z,28.25
2019-02-10T07:33:42.079Z,28.42
2019-02-10T07:34:48.516Z,27.77
2019-02-10T07:35:54.336Z,25.55
2019-02-10T07:37:02.776Z,27.40
2019-02-10T07:37:49.536Z,27.20
2019-02-10T07:39:06.363Z,26.87
2019-02-10T07:40:16.085Z,22.67
2019-02-10T07:41:25.504Z,24.98
2019-02-10T07:42:53.806Z,24.05
2019-02-10T07:44:05.345Z,23.18
2019-02-10T07:45:11.225Z,25.08
2019-02-10T07:46:30.565Z,23.67
2019-02-10T07:47:31.468Z,19.02
2019-02-10T07:48:35.805Z,20.68
2019-02-10T07:49:45.320Z,19.50
2019-02-10T07:50:46.545Z,20.23
2019-02-10T07:51:40.405Z,19.87
2019-02-10T07:52:55.501Z,19.92
2019-02-10T07:54:03.681Z,21.93
2019-02-10T07:55:23.862Z,21.80
2019-02-10T07:56:28.744Z,23.50
2019-02-10T07:57:30.202Z,24.52
2019-02-10T07:58:44.101Z,29.48
2019-02-10T08:00:00.433Z,37.85
2019-02-10T08:01:25.668Z,30.82
2019-02-10T08:02:22.187Z,27.50
2019-02-10T08:03:31.987Z,22.95
2019-02-10T08:05:01.197Z,22.98
2019-02-10T08:05:59.880Z,21.93
2019-02-10T08:07:18.553Z,23.85
2019-02-10T08:08:13.127Z,23.18
2019-02-10T08:09:24.786Z,20.48
2019-02-10T08:10:26.726Z,18.52
2019-02-10T08:11:25.326Z,18.50
2019-02-10T08:12:33.147Z,18.17
2019-02-10T08:13:28.006Z,18.80
2019-02-10T08:14:37.773Z,18.80
2019-02-10T08:16:05.772Z,17.62